Time;durP1;ratioP1;P1;durP2;ratioP2;P2;SDS_P1;SDS_P2;PMS_P1;PMS_P2;Temp;Humidity;BMP_temperature;BMP_pressure;BME280_temperature;BME280_humidity;BME280_pressure;Samples;Min_cycle;Max_cycle;Signal;HPM_P1;HPM_P2
2023/06/05 00:00:21;;;;;;;2.63;1.10;;;;;;;;;;12985524;19;20014;-61
2023/06/05 00:05:01;;;;;;;1.60;1.02;;;;;;;;;;12985000;19;20025;-60
2023/06/05 00:09:19;;;;;;;3.92;1.58;;;;;;;;;;12984319;19;20006;-61
2023/06/05 00:13:37;;;;;;;1.88;0.90;;;;;;;;;;12984287;19;20014;-61
2023/06/05 00:17:55;;;;;;;2.67;1.20;;;;;;;;;;12981537;19;20033;-61
2023/06/05 00:22:14;;;;;;;2.30;0.90;;;;;;;;;;12983412;19;20398;-61
2023/06/05 00:26:32;;;;;;;2.28;1.23;;;;;;;;;;12983766;19;20355;-61
2023/06/05 00:30:50;;;;;;;2.95;1.13;;;;;;;;;;12983335;19;20014;-61
2023/06/05 00:35:10;;;;;;;1.85;1.10;;;;;;;;;;12981835;19;20031;-60
2023/06/05 00:39:27;;;;;;;3.13;1.40;;;;;;;;;;12983235;19;20014;-61
2023/06/05 00:43:45;;;;;;;;;;;;;;;;;;12983159;19;20498;-61
2023/06/05 00:48:06;;;;;;;3.10;1.20;;;;;;;;;;12980875;19;19922;-60
2023/06/05 00:52:24;;;;;;;5.40;0.80;;;;;;;;;;12982652;19;20014;-60
2023/06/05 00:56:44;;;;;;;1.35;0.90;;;;;;;;;;12981622;19;20014;-59
2023/06/05 01:01:05;;;;;;;1.75;1.00;;;;;;;;;;12980246;19;20014;-61
2023/06/05 01:05:26;;;;;;;4.38;1.20;;;;;;;;;;12984022;19;20026;-61
2023/06/05 01:09:44;;;;;;;1.42;0.85;;;;;;;;;;12981608;19;20017;-61
2023/06/05 01:14:20;;;;;;;1.75;1.00;;;;;;;;;;12980364;19;20014;-61
2023/06/05 01:18:45;;;;;;;1.88;1.00;;;;;;;;;;12981577;19;20017;-61
2023/06/05 01:23:07;;;;;;;5.00;1.00;;;;;;;;;;12978643;19;20014;-61
2023/06/05 01:27:40;;;;;;;1.95;1.10;;;;;;;;;;12985744;19;20044;-60
2023/06/05 01:32:06;;;;;;;1.27;0.95;;;;;;;;;;12990806;19;20377;-61
2023/06/05 01:36:24;;;;;;;2.35;1.00;;;;;;;;;;12992882;19;20015;-61
2023/06/05 01:40:42;;;;;;;1.38;0.90;;;;;;;;;;12990045;19;20015;-62
2023/06/05 01:45:02;;;;;;;1.63;1.02;;;;;;;;;;12990887;19;20010;-61
2023/06/05 01:49:21;;;;;;;2.72;1.35;;;;;;;;;;12990293;19;20015;-61
2023/06/05 01:53:39;;;;;;;2.40;0.98;;;;;;;;;;12991671;19;20011;-61
2023/06/05 01:57:57;;;;;;;1.65;1.00;;;;;;;;;;12992531;19;20589;-60
2023/06/05 02:02:18;;;;;;;1.10;0.75;;;;;;;;;;12990862;19;20359;-60
2023/06/05 02:06:41;;;;;;;3.28;1.63;;;;;;;;;;12992024;19;20014;-60
2023/06/05 02:11:02;;;;;;;3.92;1.10;;;;;;;;;;12991738;19;20015;-60
2023/06/05 02:15:20;;;;;;;2.78;1.52;;;;;;;;;;12990647;19;20026;-60
2023/06/05 02:19:38;;;;;;;2.20;1.13;;;;;;;;;;12990631;19;20007;-60
2023/06/05 02:23:57;;;;;;;;;;;;;;;;;;12990019;19;20014;-61
2023/06/05 02:28:16;;;;;;;1.52;1.00;;;;;;;;;;12989368;19;19915;-61
2023/06/05 02:32:34;;;;;;;2.83;1.08;;;;;;;;;;12989989;19;20026;-61
2023/06/05 02:36:53;;;;;;;3.25;0.90;;;;;;;;;;12989014;19;20011;-61
2023/06/05 02:41:11;;;;;;;5.85;1.27;;;;;;;;;;12985437;19;20015;-60
2023/06/05 02:45:30;;;;;;;3.58;0.93;;;;;;;;;;12989212;19;20373;-61
2023/06/05 02:49:47;;;;;;;1.63;0.93;;;;;;;;;;12989201;19;20488;-60
2023/06/05 02:54:06;;;;;;;;;;;;;;;;;;12989180;19;20010;-61
2023/06/05 02:58:28;;;;;;;2.67;1.05;;;;;;;;;;12989935;19;19919;-60
2023/06/05 03:02:48;;;;;;;1.20;0.90;;;;;;;;;;12987928;19;20361;-61
2023/06/05 03:07:08;;;;;;;1.55;1.02;;;;;;;;;;12987660;19;20330;-62
2023/06/05 03:11:26;;;;;;;1.55;1.20;;;;;;;;;;12987791;19;20411;-61
2023/06/05 03:15:46;;;;;;;4.70;1.40;;;;;;;;;;12987292;19;20014;-61
2023/06/05 03:20:09;;;;;;;1.65;1.00;;;;;;;;;;12986500;19;20018;-60
2023/06/05 03:24:27;;;;;;;2.83;1.00;;;;;;;;;;12986726;19;20018;-61
2023/06/05 03:28:46;;;;;;;;;;;;;;;;;;12987402;19;20014;-61
2023/06/05 03:33:06;;;;;;;3.50;1.40;;;;;;;;;;12985849;19;19928;-61
2023/06/05 03:37:23;;;;;;;5.93;1.40;;;;;;;;;;12986870;19;20060;-61
2023/06/05 03:41:43;;;;;;;2.58;1.45;;;;;;;;;;12985941;19;20010;-60
2023/06/05 03:46:00;;;;;;;3.00;1.15;;;;;;;;;;12986266;19;20015;-60
2023/06/05 03:50:20;;;;;;;4.00;1.65;;;;;;;;;;12985983;19;20019;-61
2023/06/05 03:54:38;;;;;;;3.72;1.50;;;;;;;;;;12985349;19;20022;-61
2023/06/05 03:58:57;;;;;;;4.07;1.05;;;;;;;;;;12985651;19;20021;-61
2023/06/05 04:03:15;;;;;;;1.75;1.23;;;;;;;;;;12983802;19;20010;-61
2023/06/05 04:07:34;;;;;;;1.63;0.95;;;;;;;;;;12984877;19;20018;-61
2023/06/05 04:11:52;;;;;;;1.45;0.75;;;;;;;;;;12984320;19;20015;-61
2023/06/05 04:16:11;;;;;;;2.75;1.15;;;;;;;;;;12982697;19;20021;-61
2023/06/05 04:20:29;;;;;;;3.30;1.15;;;;;;;;;;12984511;19;20010;-60
2023/06/05 04:24:48;;;;;;;1.80;1.10;;;;;;;;;;12984124;19;20013;-61
2023/06/05 04:29:09;;;;;;;1.90;0.93;;;;;;;;;;12983327;19;20489;-61
2023/06/05 04:33:27;;;;;;;1.50;0.80;;;;;;;;;;12984589;19;20473;-61
2023/06/05 04:37:46;;;;;;;;;;;;;;;;;;12984743;19;20017;-60
2023/06/05 04:42:07;;;;;;;2.08;1.00;;;;;;;;;;12983046;19;19919;-60
2023/06/05 04:46:31;;;;;;;1.38;1.02;;;;;;;;;;12982407;19;20355;-60
2023/06/05 04:50:53;;;;;;;1.55;1.10;;;;;;;;;;12982324;19;20014;-60
2023/06/05 04:55:11;;;;;;;1.75;1.02;;;;;;;;;;12980813;19;20045;-60
2023/06/05 04:59:35;;;;;;;2.05;1.10;;;;;;;;;;12981947;19;20017;-60
2023/06/05 05:03:54;;;;;;;1.98;1.27;;;;;;;;;;12980528;19;20018;-60
2023/06/05 05:08:12;;;;;;;1.40;0.93;;;;;;;;;;12981081;19;20351;-61
2023/06/05 05:12:30;;;;;;;1.75;0.85;;;;;;;;;;12982014;19;20014;-60
2023/06/05 05:16:47;;;;;;;1.85;0.80;;;;;;;;;;12981552;19;20018;-60
2023/06/05 05:21:06;;;;;;;1.10;0.77;;;;;;;;;;12980733;19;20383;-62
2023/06/05 05:25:25;;;;;;;2.38;1.17;;;;;;;;;;12982287;19;20126;-60
2023/06/05 05:29:43;;;;;;;1.40;1.02;;;;;;;;;;12982120;19;20018;-60
2023/06/05 05:34:01;;;;;;;1.90;0.93;;;;;;;;;;12980896;19;20011;-60
2023/06/05 05:38:19;;;;;;;3.28;0.75;;;;;;;;;;12980138;19;20019;-60
2023/06/05 05:42:38;;;;;;;1.45;0.82;;;;;;;;;;12979779;19;20375;-60
2023/06/05 05:46:56;;;;;;;1.17;0.80;;;;;;;;;;12979894;19;20027;-60
2023/06/05 05:51:14;;;;;;;2.70;0.90;;;;;;;;;;12978323;19;20014;-60
2023/06/05 05:55:32;;;;;;;2.95;1.55;;;;;;;;;;12979229;19;20010;-60
2023/06/05 05:59:51;;;;;;;2.92;1.05;;;;;;;;;;12979875;19;20021;-60
2023/06/05 06:04:09;;;;;;;1.08;0.70;;;;;;;;;;12977841;19;20042;-60
2023/06/05 06:08:27;;;;;;;2.67;1.05;;;;;;;;;;12979169;19;20021;-60
2023/06/05 06:12:45;;;;;;;1.67;1.10;;;;;;;;;;12979682;19;20018;-60
2023/06/05 06:17:05;;;;;;;2.05;0.98;;;;;;;;;;12990939;19;20014;-60
2023/06/05 06:21:23;;;;;;;5.97;1.27;;;;;;;;;;12991239;19;20614;-60
2023/06/05 06:25:42;;;;;;;1.27;0.95;;;;;;;;;;12991243;19;20019;-60
2023/06/05 06:30:00;;;;;;;2.05;1.10;;;;;;;;;;12990684;19;20014;-60
2023/06/05 06:34:18;;;;;;;1.98;1.17;;;;;;;;;;12990350;19;20034;-59
2023/06/05 06:38:36;;;;;;;0.73;0.70;;;;;;;;;;12989697;19;20031;-60
2023/06/05 06:42:54;;;;;;;;;;;;;;;;;;12989670;19;20018;-63
2023/06/05 06:47:11;;;;;;;2.53;0.90;;;;;;;;;;12988718;19;19918;-63
2023/06/05 06:51:29;;;;;;;;;;;;;;;;;;12990393;19;20011;-63
2023/06/05 06:55:47;;;;;;;1.02;0.73;;;;;;;;;;12989094;19;19926;-64
2023/06/05 07:00:09;;;;;;;1.88;0.90;;;;;;;;;;12988439;19;20015;-64
2023/06/05 07:04:27;;;;;;;1.17;0.75;;;;;;;;;;12988309;19;20370;-65
2023/06/05 07:08:45;;;;;;;1.35;1.00;;;;;;;;;;12988772;19;20018;-63
2023/06/05 07:13:05;;;;;;;2.08;1.15;;;;;;;;;;12987847;19;20130;-64
2023/06/05 07:17:22;;;;;;;1.73;0.82;;;;;;;;;;12989185;19;20007;-65
2023/06/05 07:21:41;;;;;;;1.38;0.93;;;;;;;;;;12985882;19;20025;-65
2023/06/05 07:25:59;;;;;;;2.33;0.98;;;;;;;;;;12987172;19;20018;-63
2023/06/05 07:30:17;;;;;;;;;;;;;;;;;;12988288;19;20021;-64
2023/06/05 07:34:36;;;;;;;1.35;0.70;;;;;;;;;;12987572;19;19918;-62
2023/06/05 07:38:54;;;;;;;3.58;0.95;;;;;;;;;;12987801;19;20524;-63
2023/06/05 07:43:14;;;;;;;0.93;0.80;;;;;;;;;;12985896;19;20025;-63
2023/06/05 07:47:32;;;;;;;2.08;0.75;;;;;;;;;;12987046;19;20010;-63
2023/06/05 07:51:50;;;;;;;1.33;0.80;;;;;;;;;;12986630;19;20007;-63
2023/06/05 07:56:11;;;;;;;1.48;0.73;;;;;;;;;;12985539;19;20014;-63
2023/06/05 08:00:30;;;;;;;3.58;1.10;;;;;;;;;;12987113;19;20029;-62
2023/06/05 08:04:48;;;;;;;2.13;0.90;;;;;;;;;;12985659;19;20010;-63
2023/06/05 08:09:09;;;;;;;1.50;0.98;;;;;;;;;;12985126;19;20021;-63
2023/06/05 08:13:29;;;;;;;3.42;1.10;;;;;;;;;;12986212;19;20014;-63
2023/06/05 08:17:47;;;;;;;7.43;0.68;;;;;;;;;;12985908;19;20380;-63
2023/06/05 08:22:05;;;;;;;1.27;0.70;;;;;;;;;;12985138;19;20014;-63
2023/06/05 08:26:23;;;;;;;6.40;1.08;;;;;;;;;;12985766;19;20014;-64
2023/06/05 08:30:42;;;;;;;1.95;0.82;;;;;;;;;;12984878;19;20022;-63
2023/06/05 08:34:59;;;;;;;;;;;;;;;;;;12985392;19;20006;-64
2023/06/05 08:39:18;;;;;;;6.32;0.90;;;;;;;;;;12982320;19;19918;-64
2023/06/05 08:43:38;;;;;;;2.60;1.27;;;;;;;;;;12983182;19;20014;-63
2023/06/05 08:47:58;;;;;;;2.75;0.82;;;;;;;;;;12983126;19;20565;-63
2023/06/05 08:52:19;;;;;;;2.03;0.70;;;;;;;;;;12981027;19;20516;-63
2023/06/05 08:56:40;;;;;;;3.28;1.02;;;;;;;;;;12981106;19;20011;-63
2023/06/05 09:01:01;;;;;;;0.32;0.32;;;;;;;;;;12983197;19;20015;-64
2023/06/05 09:05:19;;;;;;;1.67;0.95;;;;;;;;;;12982338;19;20022;-63
2023/06/05 09:09:37;;;;;;;1.35;1.00;;;;;;;;;;12983141;19;20010;-63
2023/06/05 09:13:58;;;;;;;6.40;0.88;;;;;;;;;;12982531;19;20013;-63
2023/06/05 09:42:05;;;;;;;1.40;0.77;;;;;;;;;;12976113;19;20010;-64
2023/06/05 09:46:24;;;;;;;2.38;1.20;;;;;;;;;;12980144;19;20472;-64
2023/06/05 09:50:42;;;;;;;;;;;;;;;;;;12990722;19;20065;-63
2023/06/05 09:55:03;;;;;;;1.88;1.20;;;;;;;;;;12992184;19;19911;-63
2023/06/05 09:59:22;;;;;;;3.58;1.70;;;;;;;;;;12989642;19;20038;-63
2023/06/05 10:03:44;;;;;;;2.13;1.27;;;;;;;;;;12993201;19;20013;-63
2023/06/05 10:08:02;;;;;;;10.30;1.25;;;;;;;;;;12990354;19;20002;-64
2023/06/05 10:12:22;;;;;;;1.58;0.60;;;;;;;;;;12990647;19;20018;-64
2023/06/05 10:16:40;;;;;;;1.67;1.02;;;;;;;;;;12991425;19;20018;-63
2023/06/05 10:20:59;;;;;;;2.20;1.30;;;;;;;;;;12989441;19;20023;-65
2023/06/05 10:25:19;;;;;;;2.90;1.02;;;;;;;;;;12988637;19;20526;-64
2023/06/05 10:29:52;;;;;;;1.63;1.00;;;;;;;;;;12990811;19;20466;-64
2023/06/05 10:34:32;;;;;;;2.95;1.30;;;;;;;;;;12989566;19;20041;-63
2023/06/05 10:38:51;;;;;;;1.60;0.80;;;;;;;;;;12990043;19;20014;-63
2023/06/05 10:43:47;;;;;;;2.50;1.05;;;;;;;;;;12986823;19;20006;-64
2023/06/05 10:48:05;;;;;;;3.08;1.08;;;;;;;;;;12988695;19;20023;-64
2023/06/05 10:52:36;;;;;;;1.52;1.10;;;;;;;;;;12987152;19;20512;-64
2023/06/05 10:56:56;;;;;;;1.63;0.90;;;;;;;;;;12988728;19;20010;-63
2023/06/05 11:01:19;;;;;;;3.33;1.15;;;;;;;;;;12986630;19;20022;-64
2023/06/05 11:06:11;;;;;;;1.60;1.02;;;;;;;;;;12989098;19;20369;-63
2023/06/05 11:10:28;;;;;;;1.55;1.15;;;;;;;;;;12988169;19;20019;-63
2023/06/05 11:14:47;;;;;;;2.33;1.38;;;;;;;;;;12988362;19;20014;-64
2023/06/05 11:19:21;;;;;;;6.00;0.90;;;;;;;;;;12986895;19;20366;-63
2023/06/05 11:23:39;;;;;;;4.80;1.02;;;;;;;;;;12986804;19;20496;-64
2023/06/05 11:28:10;;;;;;;1.13;1.00;;;;;;;;;;12982822;19;20593;-64
2023/06/05 11:32:29;;;;;;;2.72;0.55;;;;;;;;;;12986752;19;20469;-63
2023/06/05 11:36:47;;;;;;;2.22;1.20;;;;;;;;;;12986766;19;20037;-64
2023/06/05 11:41:08;;;;;;;4.78;1.17;;;;;;;;;;12985541;19;20011;-64
2023/06/05 11:45:25;;;;;;;1.83;1.00;;;;;;;;;;12985686;19;20006;-63
2023/06/05 11:49:44;;;;;;;0.82;0.73;;;;;;;;;;12985766;19;20049;-63
2023/06/05 11:54:04;;;;;;;1.23;0.75;;;;;;;;;;12984867;19;20500;-64
2023/06/05 11:58:31;;;;;;;1.70;0.85;;;;;;;;;;12985716;19;20019;-64
2023/06/05 12:02:49;;;;;;;1.70;0.90;;;;;;;;;;12985120;19;20052;-66
2023/06/05 12:07:08;;;;;;;1.42;1.13;;;;;;;;;;12984005;19;20023;-64
2023/06/05 12:11:28;;;;;;;2.03;1.13;;;;;;;;;;12983732;19;20025;-65
2023/06/05 12:15:59;;;;;;;7.00;1.27;;;;;;;;;;12965667;19;20797;-64
2023/06/05 12:20:20;;;;;;;2.80;1.05;;;;;;;;;;12980322;19;20018;-65
2023/06/05 12:24:38;;;;;;;1.63;0.90;;;;;;;;;;12979840;19;20010;-65
2023/06/05 12:29:05;;;;;;;1.13;0.90;;;;;;;;;;12978944;19;20026;-65
2023/06/05 12:33:26;;;;;;;3.37;1.23;;;;;;;;;;12976828;19;20047;-64
2023/06/05 12:37:47;;;;;;;2.35;0.80;;;;;;;;;;12978101;19;20385;-65
2023/06/05 12:42:05;;;;;;;1.77;1.08;;;;;;;;;;12977836;19;20011;-64
2023/06/05 12:46:23;;;;;;;2.05;0.90;;;;;;;;;;12977844;19;20338;-64
2023/06/05 12:50:42;;;;;;;3.40;1.02;;;;;;;;;;12978560;19;20007;-65
2023/06/05 12:55:02;;;;;;;0.80;0.65;;;;;;;;;;12977507;19;20367;-64
2023/06/05 12:59:21;;;;;;;2.60;1.05;;;;;;;;;;12978106;19;20864;-64
2023/06/05 13:03:38;;;;;;;7.50;1.20;;;;;;;;;;12977015;19;20034;-64
2023/06/05 13:07:58;;;;;;;3.42;0.90;;;;;;;;;;12977961;19;20461;-65
2023/06/05 13:12:17;;;;;;;5.95;1.42;;;;;;;;;;12977206;19;20014;-64
2023/06/05 13:16:35;;;;;;;5.30;1.15;;;;;;;;;;12977213;19;20014;-64
2023/06/05 13:20:53;;;;;;;3.38;1.13;;;;;;;;;;12976711;19;20022;-64
2023/06/05 13:25:12;;;;;;;1.83;1.00;;;;;;;;;;12986843;19;20022;-65
2023/06/05 13:29:30;;;;;;;1.17;0.90;;;;;;;;;;12989067;19;20014;-64
2023/06/05 13:33:48;;;;;;;2.92;1.00;;;;;;;;;;12988352;19;20014;-64
2023/06/05 13:38:07;;;;;;;4.63;1.33;;;;;;;;;;12987659;19;20014;-64
2023/06/05 13:42:25;;;;;;;3.30;0.95;;;;;;;;;;12988519;19;20023;-64
2023/06/05 13:46:44;;;;;;;2.65;0.68;;;;;;;;;;12987500;19;20041;-64
2023/06/05 13:51:04;;;;;;;2.88;1.40;;;;;;;;;;12987278;19;20051;-65
2023/06/05 13:55:22;;;;;;;3.47;1.35;;;;;;;;;;12987098;19;20440;-64
2023/06/05 13:59:40;;;;;;;1.75;0.90;;;;;;;;;;12987692;19;20026;-64
2023/06/05 14:03:59;;;;;;;1.65;1.15;;;;;;;;;;12987144;19;20018;-63
2023/06/05 14:08:18;;;;;;;4.28;1.15;;;;;;;;;;12986906;19;20692;-63
2023/06/05 14:12:37;;;;;;;2.00;1.00;;;;;;;;;;12986444;19;20013;-64
2023/06/05 14:16:57;;;;;;;3.47;1.10;;;;;;;;;;12987441;19;20466;-63
2023/06/05 14:21:15;;;;;;;2.95;1.30;;;;;;;;;;12984480;19;20006;-64
2023/06/05 14:25:33;;;;;;;1.85;1.00;;;;;;;;;;12985760;19;20888;-65
2023/06/05 14:29:51;;;;;;;2.38;1.00;;;;;;;;;;12983738;19;20027;-65
2023/06/05 14:34:09;;;;;;;2.53;1.20;;;;;;;;;;12982687;19;20023;-64
2023/06/05 14:38:27;;;;;;;1.52;0.88;;;;;;;;;;12985130;19;20490;-64
2023/06/05 14:42:44;;;;;;;4.88;1.33;;;;;;;;;;12984931;19;20022;-64
2023/06/05 14:47:04;;;;;;;3.28;1.10;;;;;;;;;;12983791;19;20037;-64
2023/06/05 14:51:21;;;;;;;1.17;0.88;;;;;;;;;;12985067;19;20034;-64
2023/06/05 14:55:39;;;;;;;;;;;;;;;;;;12982512;19;20477;-65
2023/06/05 14:59:58;;;;;;;3.40;0.70;;;;;;;;;;12984100;19;19918;-63
2023/06/05 15:04:17;;;;;;;5.38;1.30;;;;;;;;;;12983897;19;20021;-64
2023/06/05 15:08:37;;;;;;;1.60;1.05;;;;;;;;;;12983943;19;20010;-64
2023/06/05 15:12:57;;;;;;;;;;;;;;;;;;12984831;19;20488;-64
2023/06/05 15:17:15;;;;;;;4.60;1.25;;;;;;;;;;12983540;19;19926;-64
2023/06/05 15:21:33;;;;;;;2.38;1.13;;;;;;;;;;12982603;19;20026;-63
2023/06/05 15:25:52;;;;;;;2.28;1.27;;;;;;;;;;12982357;19;20537;-64
2023/06/05 15:30:12;;;;;;;2.05;1.00;;;;;;;;;;12981040;19;20871;-64
2023/06/05 15:34:30;;;;;;;2.55;1.02;;;;;;;;;;12981454;19;20014;-64
2023/06/05 15:38:48;;;;;;;;;;;;;;;;;;12982680;19;20024;-64
2023/06/05 15:43:11;;;;;;;1.58;0.98;;;;;;;;;;12980705;19;19931;-64
2023/06/05 15:47:30;;;;;;;3.40;1.23;;;;;;;;;;12980367;19;20006;-64
2023/06/05 15:51:48;;;;;;;3.15;1.00;;;;;;;;;;12981383;19;20038;-64
2023/06/05 15:56:06;;;;;;;8.95;5.50;;;;;;;;;;12979206;19;20041;-64
2023/06/05 16:00:25;;;;;;;3.63;2.47;;;;;;;;;;12980636;19;20022;-64
2023/06/05 16:04:45;;;;;;;3.25;2.28;;;;;;;;;;12979749;19;20026;-64
2023/06/05 16:09:04;;;;;;;2.80;1.45;;;;;;;;;;12978933;19;20350;-65
2023/06/05 16:13:23;;;;;;;7.07;1.15;;;;;;;;;;12979943;19;20022;-63
2023/06/05 16:17:42;;;;;;;3.92;1.40;;;;;;;;;;12977526;19;20015;-64
2023/06/05 16:22:00;;;;;;;3.08;1.30;;;;;;;;;;12979312;19;20819;-65
2023/06/05 16:26:19;;;;;;;2.28;1.38;;;;;;;;;;12977980;19;20014;-65
2023/06/05 16:30:40;;;;;;;3.08;1.17;;;;;;;;;;12979153;19;20014;-64
2023/06/05 16:34:58;;;;;;;;;;;;;;;;;;12980638;19;20022;-63
2023/06/05 16:39:56;;;;;;;1.13;1.00;;;;;;;;;;12978631;19;19932;-64
2023/06/05 16:44:21;;;;;;;1.33;1.20;;;;;;;;;;12977630;19;20025;-64
2023/06/05 16:48:43;;;;;;;8.15;1.48;;;;;;;;;;12978630;19;20021;-64
2023/06/05 16:53:04;;;;;;;2.22;1.27;;;;;;;;;;12976318;19;20022;-64
2023/06/05 16:57:25;;;;;;;2.78;1.42;;;;;;;;;;12973541;19;20025;-64
2023/06/05 17:01:48;;;;;;;3.30;1.45;;;;;;;;;;12976211;19;20010;-64
2023/06/05 17:06:08;;;;;;;2.72;1.20;;;;;;;;;;12974782;19;20031;-65
2023/06/05 17:10:29;;;;;;;3.40;1.60;;;;;;;;;;12977247;19;20042;-64
2023/06/05 17:14:58;;;;;;;3.10;1.10;;;;;;;;;;12975958;19;20022;-64
2023/06/05 17:19:20;;;;;;;10.30;2.15;;;;;;;;;;12973624;19;20129;-64
2023/06/05 17:23:47;;;;;;;5.13;1.40;;;;;;;;;;12973429;19;20024;-64
2023/06/05 17:28:14;;;;;;;7.22;1.20;;;;;;;;;;12975174;19;20323;-64
2023/06/05 17:32:39;;;;;;;4.78;1.00;;;;;;;;;;12976268;19;20008;-65
2023/06/05 17:37:08;;;;;;;4.35;1.58;;;;;;;;;;12974948;19;20403;-65
2023/06/05 17:41:38;;;;;;;3.67;1.65;;;;;;;;;;12973584;19;20499;-65
2023/06/05 17:46:44;;;;;;;3.72;1.50;;;;;;;;;;12967454;19;20003;-64
2023/06/05 17:51:07;;;;;;;2.40;1.40;;;;;;;;;;12965867;19;20014;-64
2023/06/05 17:55:38;;;;;;;2.45;1.70;;;;;;;;;;12965670;19;20078;-64
2023/06/05 17:59:57;;;;;;;3.08;1.58;;;;;;;;;;12967030;19;20019;-64
2023/06/05 18:04:16;;;;;;;6.55;1.38;;;;;;;;;;12965185;19;20114;-64
2023/06/05 18:08:38;;;;;;;4.10;1.17;;;;;;;;;;12968791;19;20010;-64
2023/06/05 18:13:08;;;;;;;1.70;1.20;;;;;;;;;;12978313;19;20028;-64
2023/06/05 18:17:32;;;;;;;7.97;4.10;;;;;;;;;;12983583;19;20013;-64
2023/06/05 18:21:58;;;;;;;9.73;6.00;;;;;;;;;;12986212;19;20011;-63
2023/06/05 18:26:20;;;;;;;8.88;5.00;;;;;;;;;;12983231;19;20082;-64
2023/06/05 18:50:30;;;;;;;13.38;4.93;;;;;;;;;;12869062;19;2005698;-64
2023/06/05 18:55:00;;;;;;;9.57;3.28;;;;;;;;;;12980603;19;20010;-64
2023/06/05 18:59:19;;;;;;;3.90;2.20;;;;;;;;;;12983178;19;20003;-64
2023/06/05 19:03:37;;;;;;;5.22;2.35;;;;;;;;;;12982169;19;20113;-64
2023/06/05 19:07:58;;;;;;;4.68;2.15;;;;;;;;;;12981437;19;20014;-65
2023/06/05 19:12:16;;;;;;;5.82;2.58;;;;;;;;;;12982349;19;20096;-64
2023/06/05 19:16:34;;;;;;;5.05;2.85;;;;;;;;;;12983593;19;20052;-65
2023/06/05 19:20:52;;;;;;;11.02;5.10;;;;;;;;;;12981305;19;20011;-65
2023/06/05 19:25:10;;;;;;;10.50;4.32;;;;;;;;;;12979056;19;20480;-65
2023/06/05 19:29:29;;;;;;;;;;;;;;;;;;12982320;19;20409;-64
2023/06/05 19:33:47;;;;;;;10.55;2.60;;;;;;;;;;12981626;19;19929;-64
2023/06/05 19:38:06;;;;;;;6.25;2.83;;;;;;;;;;12981294;19;20512;-64
2023/06/05 19:42:25;;;;;;;3.75;1.98;;;;;;;;;;12980724;19;20772;-64
2023/06/05 19:46:42;;;;;;;2.33;1.63;;;;;;;;;;12978815;19;20353;-64
2023/06/05 19:51:01;;;;;;;4.47;2.00;;;;;;;;;;12980486;19;20780;-65
2023/06/05 19:55:20;;;;;;;2.78;1.83;;;;;;;;;;12980218;19;20011;-64
2023/06/05 19:59:40;;;;;;;3.50;1.65;;;;;;;;;;12980657;19;20414;-65
2023/06/05 20:04:02;;;;;;;2.40;1.65;;;;;;;;;;12980522;19;20010;-63
2023/06/05 20:08:21;;;;;;;2.55;1.80;;;;;;;;;;12980876;19;20030;-63
2023/06/05 20:12:39;;;;;;;2.58;1.73;;;;;;;;;;12977600;19;20011;-64
2023/06/05 20:16:59;;;;;;;3.55;1.80;;;;;;;;;;12979092;19;20018;-63
2023/06/05 20:21:19;;;;;;;4.43;1.83;;;;;;;;;;12979329;19;20011;-65
2023/06/05 20:25:37;;;;;;;4.22;1.63;;;;;;;;;;12978076;19;20025;-64
2023/06/05 20:29:55;;;;;;;5.20;1.95;;;;;;;;;;12978402;19;20006;-64
2023/06/05 20:34:15;;;;;;;3.75;2.22;;;;;;;;;;12974707;19;20010;-63
2023/06/05 20:38:36;;;;;;;6.82;2.00;;;;;;;;;;12978017;19;20013;-64
2023/06/05 20:42:54;;;;;;;4.28;1.90;;;;;;;;;;12977563;19;20014;-64
2023/06/05 20:47:16;;;;;;;2.95;1.73;;;;;;;;;;12976347;19;20025;-64
2023/06/05 20:51:34;;;;;;;2.75;1.67;;;;;;;;;;12976312;19;20508;-63
2023/06/05 20:55:52;;;;;;;3.22;1.90;;;;;;;;;;12976695;19;20031;-63
2023/06/05 21:00:09;;;;;;;;;;;;;;;;;;12976919;19;20861;-65
2023/06/05 21:04:27;;;;;;;2.63;1.65;;;;;;;;;;12976873;19;19935;-64
2023/06/05 21:08:45;;;;;;;2.42;1.45;;;;;;;;;;12976481;19;20462;-64
2023/06/05 21:13:04;;;;;;;2.90;1.55;;;;;;;;;;12975351;19;20027;-65
2023/06/05 21:17:23;;;;;;;3.53;1.77;;;;;;;;;;12975638;19;20017;-64
2023/06/05 21:21:45;;;;;;;2.28;1.35;;;;;;;;;;12976020;19;20742;-64
2023/06/05 21:26:03;;;;;;;6.35;1.42;;;;;;;;;;12974433;19;20049;-64
2023/06/05 21:30:22;;;;;;;7.07;1.55;;;;;;;;;;12975930;19;20026;-66
2023/06/05 21:34:43;;;;;;;1.73;1.17;;;;;;;;;;12976554;19;20018;-64
2023/06/05 21:39:01;;;;;;;2.22;1.55;;;;;;;;;;12975470;19;20031;-66
2023/06/05 21:43:19;;;;;;;3.13;0.93;;;;;;;;;;12975347;19;20469;-64
2023/06/05 21:47:36;;;;;;;2.38;1.30;;;;;;;;;;12987131;19;20039;-65
2023/06/05 21:51:55;;;;;;;3.63;1.20;;;;;;;;;;12987875;19;20019;-63
2023/06/05 21:56:13;;;;;;;5.90;1.45;;;;;;;;;;12985826;19;20050;-64
2023/06/05 22:00:31;;;;;;;3.33;1.27;;;;;;;;;;12986323;19;20007;-64
2023/06/05 22:04:49;;;;;;;6.40;1.23;;;;;;;;;;12986267;19;20506;-64
2023/06/05 22:09:09;;;;;;;1.95;1.10;;;;;;;;;;12985631;19;20019;-64
2023/06/05 22:13:28;;;;;;;1.58;1.10;;;;;;;;;;12990768;19;20784;-64
2023/06/05 22:17:47;;;;;;;3.63;1.30;;;;;;;;;;12991234;19;20318;-64
2023/06/05 22:22:05;;;;;;;2.97;1.30;;;;;;;;;;12987390;19;20022;-64
2023/06/05 22:26:23;;;;;;;2.97;1.13;;;;;;;;;;12978119;19;20043;-63
2023/06/05 22:30:41;;;;;;;2.88;1.08;;;;;;;;;;12990496;19;20350;-64
2023/06/05 22:35:02;;;;;;;6.13;1.30;;;;;;;;;;12990312;19;20029;-66
2023/06/05 22:39:21;;;;;;;2.45;1.17;;;;;;;;;;12989908;19;20015;-64
2023/06/05 22:43:38;;;;;;;2.53;1.00;;;;;;;;;;12988701;19;20527;-64
2023/06/05 22:47:57;;;;;;;3.03;1.30;;;;;;;;;;12988721;19;20015;-64
2023/06/05 22:52:15;;;;;;;2.85;1.63;;;;;;;;;;12988608;19;20014;-63
2023/06/05 22:56:35;;;;;;;2.25;1.08;;;;;;;;;;12985152;19;20469;-64
2023/06/05 23:00:54;;;;;;;2.85;1.05;;;;;;;;;;12988355;19;20366;-64
2023/06/05 23:05:15;;;;;;;2.17;0.98;;;;;;;;;;12986674;19;20049;-64
2023/06/05 23:09:34;;;;;;;3.95;1.10;;;;;;;;;;12989027;19;20014;-64
2023/06/05 23:13:51;;;;;;;;;;;;;;;;;;12989106;19;20003;-64
2023/06/05 23:18:13;;;;;;;0.90;0.73;;;;;;;;;;12987459;19;19927;-65
2023/06/05 23:22:31;;;;;;;1.92;1.00;;;;;;;;;;12987122;19;20010;-64
2023/06/05 23:26:49;;;;;;;0.93;0.73;;;;;;;;;;12986555;19;20015;-64
2023/06/05 23:31:07;;;;;;;1.08;0.93;;;;;;;;;;12985864;19;20010;-65
2023/06/05 23:35:24;;;;;;;1.17;0.82;;;;;;;;;;12986527;19;20490;-63
2023/06/05 23:39:42;;;;;;;1.33;0.90;;;;;;;;;;12986234;19;20430;-63
2023/06/05 23:44:00;;;;;;;1.40;0.90;;;;;;;;;;12985614;19;20006;-64
2023/06/05 23:48:18;;;;;;;1.20;0.70;;;;;;;;;;12984536;19;20014;-63
2023/06/05 23:52:37;;;;;;;1.08;0.77;;;;;;;;;;12985309;19;20018;-64
2023/06/05 23:56:55;;;;;;;2.05;1.17;;;;;;;;;;12983829;19;20038;-64
